createdAt,value
2018-08-22T00:02:16.577Z,148965.59
2018-08-22T00:04:46.740Z,148965.59
2018-08-22T00:07:17.010Z,148951.84
2018-08-22T00:09:48.181Z,148964.36
2018-08-22T00:12:19.414Z,148945.63
2018-08-22T00:14:49.276Z,148936.89
2018-08-22T00:17:19.875Z,148905.66
2018-08-22T00:19:51.507Z,148914.42
2018-08-22T00:22:23.768Z,148925.69
2018-08-22T00:24:54.071Z,148928.19
2018-08-22T00:27:25.172Z,148936.89
2018-08-22T00:29:56.771Z,148951.84
2018-08-22T00:32:28.104Z,148940.64
2018-08-22T00:34:58.309Z,148944.38
2018-08-22T00:37:29.510Z,148963.11
2018-08-22T00:39:59.471Z,148941.88
2018-08-22T00:42:29.538Z,148941.88
2018-08-22T00:45:00.300Z,148931.91
2018-08-22T00:47:30.420Z,148914.42
2018-08-22T00:50:01.235Z,148911.89
2018-08-22T00:52:33.534Z,148930.67
2018-08-22T00:55:03.515Z,148926.94
2018-08-22T00:57:33.600Z,148914.42
2018-08-22T01:00:03.806Z,148913.12
2018-08-22T01:02:34.097Z,148920.66
2018-08-22T01:05:04.773Z,148910.64
2018-08-22T01:07:36.135Z,148920.66
2018-08-22T01:10:06.885Z,148916.92
2018-08-22T01:12:37.837Z,148909.41
2018-08-22T01:15:08.040Z,148889.47
2018-08-22T01:17:39.050Z,148884.48
2018-08-22T01:20:10.087Z,148903.17
2018-08-22T01:22:40.179Z,148896.94
2018-08-22T01:25:10.420Z,148898.19
2018-08-22T01:27:45.794Z,148905.66
2018-08-22T01:30:15.936Z,148882.00
2018-08-22T01:32:47.049Z,148863.27
2018-08-22T01:35:18.789Z,148864.50
2018-08-22T01:37:49.922Z,148854.55
2018-08-22T01:40:20.286Z,148837.11
2018-08-22T01:42:51.671Z,148842.09
2018-08-22T01:45:21.813Z,148827.16
2018-08-22T01:47:52.558Z,148822.16
2018-08-22T01:50:22.637Z,148840.84
2018-08-22T01:52:52.911Z,148840.84
2018-08-22T01:55:23.491Z,148838.36
2018-08-22T01:57:54.518Z,148835.86
2018-08-22T02:00:24.861Z,148838.36
2018-08-22T02:02:56.991Z,148847.06
2018-08-22T02:05:27.067Z,148854.55
2018-08-22T02:07:58.046Z,148845.83
2018-08-22T02:10:28.145Z,148837.11
2018-08-22T02:12:58.700Z,148834.63
2018-08-22T02:15:28.915Z,148838.36
2018-08-22T02:17:58.997Z,148840.84
2018-08-22T02:20:29.514Z,148834.63
2018-08-22T02:23:00.577Z,148844.58
2018-08-22T02:25:30.727Z,148830.87
2018-08-22T02:28:00.991Z,148833.38
2018-08-22T02:30:31.096Z,148844.58
2018-08-22T02:33:01.345Z,148817.13
2018-08-22T02:35:31.524Z,148832.12
2018-08-22T02:38:03.753Z,148852.06
2018-08-22T02:40:34.135Z,148894.44
2018-08-22T02:43:04.706Z,148916.92
2018-08-22T02:45:34.888Z,148914.42
2018-08-22T02:48:05.014Z,148914.42
2018-08-22T02:50:35.130Z,148910.64
2018-08-22T02:53:06.782Z,148906.91
2018-08-22T02:55:36.857Z,148859.53
2018-08-22T02:58:06.962Z,148857.03
2018-08-22T03:00:37.559Z,148834.63
2018-08-22T03:03:07.710Z,148832.12
2018-08-22T03:05:38.252Z,148834.63
2018-08-22T03:08:09.302Z,148779.78
2018-08-22T03:10:40.048Z,148751.09
2018-08-22T03:13:11.174Z,148748.59
2018-08-22T03:15:41.214Z,148787.25
2018-08-22T03:18:13.274Z,148830.87
2018-08-22T03:20:43.451Z,148869.53
2018-08-22T03:23:14.676Z,148906.91
2018-08-22T03:25:44.892Z,148943.13
2018-08-22T03:28:16.039Z,148965.59
2018-08-22T03:30:46.540Z,148993.00
2018-08-22T03:33:18.017Z,149022.97
2018-08-22T03:35:48.398Z,149049.12
2018-08-22T03:38:18.398Z,149090.30
2018-08-22T03:40:48.491Z,149122.81
2018-08-22T03:43:20.447Z,149186.42
2018-08-22T03:45:50.811Z,149236.34
2018-08-22T03:48:21.340Z,149323.77
2018-08-22T03:50:51.654Z,149407.42
2018-08-22T03:53:21.712Z,149496.16
2018-08-22T03:55:53.673Z,149603.56
2018-08-22T03:58:25.577Z,149673.59
2018-08-22T04:00:55.582Z,149737.31
2018-08-22T04:03:26.641Z,149797.30
2018-08-22T04:05:57.089Z,149882.36
2018-08-22T04:08:27.291Z,149988.64
2018-08-22T04:10:57.623Z,150098.78
2018-08-22T04:13:27.803Z,150192.63
2018-08-22T04:15:59.397Z,150276.47
2018-08-22T04:18:29.412Z,150341.63
2018-08-22T04:21:00.743Z,150434.28
2018-08-22T04:23:32.539Z,150490.61
2018-08-22T04:26:02.839Z,150486.86
2018-08-22T04:28:34.366Z,150306.53
2018-08-22T04:31:04.461Z,150292.78
2018-08-22T04:33:36.455Z,150366.64
2018-08-22T04:36:06.784Z,150669.83
2018-08-22T04:38:36.978Z,150667.28
2018-08-22T04:41:07.549Z,150825.23
2018-08-22T04:43:39.563Z,150970.67
2018-08-22T04:46:10.488Z,151181.39
2018-08-22T04:48:40.822Z,151329.47
2018-08-22T04:51:11.138Z,151463.81
2018-08-22T04:53:42.688Z,151663.52
2018-08-22T04:56:13.248Z,151650.97
2018-08-22T04:58:45.068Z,151678.63
2018-08-22T05:01:16.874Z,151448.75
2018-08-22T05:03:47.682Z,151417.38
2018-08-22T05:06:18.504Z,151510.30
2018-08-22T05:08:50.180Z,151534.17
2018-08-22T05:11:20.759Z,151487.69
2018-08-22T05:13:51.280Z,151594.42
2018-08-22T05:16:21.572Z,151532.92
2018-08-22T05:18:51.893Z,151323.20
2018-08-22T05:21:24.656Z,151102.41
2018-08-22T05:23:54.898Z,151121.19
2018-08-22T05:26:26.806Z,151099.89
2018-08-22T05:29:00.210Z,150766.30
2018-08-22T05:31:31.060Z,150704.86
2018-08-22T05:34:01.982Z,150802.66
2018-08-22T05:36:32.685Z,150788.83
2018-08-22T05:39:03.227Z,150941.83
2018-08-22T05:41:33.873Z,151412.34
2018-08-22T05:44:05.862Z,151580.62
2018-08-22T05:46:36.349Z,151645.95
2018-08-22T05:49:07.753Z,151764.03
2018-08-22T05:51:37.804Z,151862.06
2018-08-22T05:54:08.522Z,151863.31
2018-08-22T05:56:39.471Z,151393.55
2018-08-22T05:59:09.785Z,152043.06
2018-08-22T06:01:40.421Z,152687.30
2018-08-22T06:04:11.488Z,152691.06
2018-08-22T06:06:43.737Z,153007.25
2018-08-22T06:09:14.861Z,152534.98
2018-08-22T06:11:45.417Z,152031.77
2018-08-22T06:14:15.568Z,152038.05
2018-08-22T06:16:45.707Z,152470.75
2018-08-22T06:19:16.938Z,152878.73
2018-08-22T06:21:48.608Z,153374.00
2018-08-22T06:24:19.137Z,153747.38
2018-08-22T06:26:49.267Z,153964.53
2018-08-22T06:29:20.559Z,154062.95
2018-08-22T06:34:45.581Z,154166.53
2018-08-22T06:37:18.099Z,154469.70
2018-08-22T06:39:49.123Z,154492.47
2018-08-22T06:42:18.798Z,154850.14
2018-08-22T06:44:48.656Z,154620.06
2018-08-22T06:47:19.091Z,154828.67
2018-08-22T06:49:59.043Z,155080.34
2018-08-22T06:52:29.615Z,155162.59
2018-08-22T06:55:00.411Z,154597.34
2018-08-22T06:57:30.185Z,154749.00
2018-08-22T07:00:00.505Z,154632.73
2018-08-22T07:02:31.029Z,154908.31
2018-08-22T07:05:01.986Z,154827.41
2018-08-22T07:07:32.959Z,155027.22
2018-08-22T07:10:08.186Z,155074.03
2018-08-22T07:12:40.218Z,155004.44
2018-08-22T07:15:15.573Z,154809.69
2018-08-22T07:17:46.116Z,154872.97
2018-08-22T07:20:17.422Z,154946.25
2018-08-22T07:22:47.554Z,155019.64
2018-08-22T07:25:20.508Z,154907.06
2018-08-22T07:27:51.521Z,154321.86
2018-08-22T07:30:23.418Z,154047.78
2018-08-22T07:32:53.541Z,153550.59
2018-08-22T07:35:27.546Z,153193.69
2018-08-22T07:37:58.271Z,152737.64
2018-08-22T07:40:28.425Z,152477.03
2018-08-22T07:42:58.836Z,152126.03
2018-08-22T07:45:30.670Z,151789.17
2018-08-22T07:48:01.141Z,151699.94
2018-08-22T07:50:31.897Z,151610.73
2018-08-22T07:53:07.094Z,151540.44
2018-08-22T07:55:42.334Z,151512.81
2018-08-22T07:58:13.970Z,151372.19
2018-08-22T08:00:47.337Z,151231.61
2018-08-22T08:03:17.907Z,151226.55
2018-08-22T08:05:48.289Z,151183.89
2018-08-22T08:08:20.435Z,151185.14
2018-08-22T08:10:50.725Z,151127.45
2018-08-22T08:13:29.686Z,151007.05
2018-08-22T08:16:01.415Z,151029.59
2018-08-22T08:18:34.386Z,151018.33
2018-08-22T08:21:05.509Z,151060.97
2018-08-22T08:23:35.268Z,151044.63
2018-08-22T08:26:05.573Z,151024.59
2018-08-22T08:28:37.140Z,150955.66
2018-08-22T08:31:08.360Z,150995.73
2018-08-22T08:33:39.634Z,150990.72
2018-08-22T08:36:11.169Z,150973.19
2018-08-22T08:38:41.313Z,151025.84
2018-08-22T08:41:11.769Z,151040.87
2018-08-22T08:43:42.026Z,151033.36
2018-08-22T08:46:12.358Z,151019.58
2018-08-22T08:48:43.145Z,150980.70
2018-08-22T08:51:13.304Z,150983.20
2018-08-22T08:53:43.203Z,151054.70
2018-08-22T08:56:13.057Z,151126.20
2018-08-22T08:58:43.538Z,151151.31
2018-08-22T09:01:13.489Z,151173.88
2018-08-22T09:03:44.036Z,151148.81
2018-08-22T09:06:16.105Z,151152.56
2018-08-22T09:08:46.006Z,151158.83
2018-08-22T09:11:15.849Z,151161.33
2018-08-22T09:13:53.603Z,151139.98
2018-08-22T09:16:24.211Z,151163.84
2018-08-22T09:18:54.253Z,151150.06
2018-08-22T09:21:24.642Z,151119.94
2018-08-22T09:23:54.487Z,151077.25
2018-08-22T09:26:24.472Z,151078.50
2018-08-22T09:28:54.373Z,151078.50
2018-08-22T09:31:24.255Z,151044.63
2018-08-22T09:33:56.304Z,151067.22
2018-08-22T09:36:26.243Z,151004.55
2018-08-22T09:38:56.130Z,151012.06
2018-08-22T09:41:25.999Z,151025.84
2018-08-22T09:43:55.850Z,151008.30
2018-08-22T09:46:26.100Z,151017.06
2018-08-22T09:48:56.257Z,150998.23
2018-08-22T09:51:26.633Z,150984.45
2018-08-22T09:53:56.785Z,150936.77
2018-08-22T09:56:26.939Z,150973.19
2018-08-22T09:58:56.840Z,150993.22
2018-08-22T10:01:31.618Z,150940.53
2018-08-22T10:04:02.551Z,150905.41
2018-08-22T10:06:38.716Z,150920.48
2018-08-22T10:09:10.758Z,150895.39
2018-08-22T10:11:40.589Z,150825.23
2018-08-22T10:14:11.270Z,150787.58
2018-08-22T10:16:41.413Z,150721.19
2018-08-22T10:19:12.026Z,150684.84
2018-08-22T10:21:42.565Z,150709.88
2018-08-22T10:24:12.373Z,150674.83
2018-08-22T10:26:42.370Z,150652.25
2018-08-22T10:29:14.389Z,150628.42
2018-08-22T10:31:44.683Z,150643.44
2018-08-22T10:34:14.427Z,150573.28
2018-08-22T10:36:44.274Z,150637.19
2018-08-22T10:39:16.412Z,150662.27
2018-08-22T10:41:46.397Z,150667.28
2018-08-22T10:44:16.172Z,150609.61
2018-08-22T10:46:45.994Z,150623.42
2018-08-22T10:49:17.299Z,150642.19
2018-08-22T10:51:47.108Z,150664.77
2018-08-22T10:54:16.872Z,150640.94
2018-08-22T10:56:46.847Z,150677.34
2018-08-22T10:59:18.121Z,150672.33
2018-08-22T11:01:48.705Z,150617.13
2018-08-22T11:04:20.622Z,150600.84
2018-08-22T11:06:50.497Z,150609.61
2018-08-22T11:09:22.251Z,150658.52
2018-08-22T11:11:54.067Z,150610.86
2018-08-22T11:14:24.566Z,150627.17
2018-08-22T11:16:54.333Z,150664.77
2018-08-22T11:19:25.772Z,150703.63
2018-08-22T11:22:06.046Z,150719.94
2018-08-22T11:24:46.736Z,150739.95
2018-08-22T11:27:30.456Z,150704.86
2018-08-22T11:30:12.297Z,150693.59
2018-08-22T11:32:53.190Z,150719.94
2018-08-22T11:35:21.219Z,150702.36
2018-08-22T11:37:52.052Z,150657.25
2018-08-22T11:40:21.790Z,150598.34
2018-08-22T11:42:51.826Z,150624.67
2018-08-22T11:45:21.694Z,150693.59
2018-08-22T11:47:51.501Z,150718.69
2018-08-22T11:50:23.465Z,150666.02
2018-08-22T11:52:53.379Z,150610.86
2018-08-22T11:55:23.234Z,150614.62
2018-08-22T11:57:52.938Z,150634.69
2018-08-22T12:00:22.839Z,150668.53
2018-08-22T12:02:52.563Z,150707.38
2018-08-22T12:05:22.365Z,150672.33
2018-08-22T12:07:52.160Z,150649.75
2018-08-22T12:10:24.874Z,150659.77
2018-08-22T12:12:55.136Z,150649.75
2018-08-22T12:15:24.895Z,150654.75
2018-08-22T12:17:55.021Z,150676.08
2018-08-22T12:20:24.897Z,150686.09
2018-08-22T12:22:54.732Z,150691.09
2018-08-22T12:25:25.038Z,150677.34
2018-08-22T12:27:54.958Z,150570.78
2018-08-22T12:30:24.817Z,150560.77
2018-08-22T12:32:54.705Z,150554.50
2018-08-22T12:35:24.595Z,150592.09
2018-08-22T12:37:54.950Z,150649.75
2018-08-22T12:40:32.469Z,150642.19
2018-08-22T12:43:02.264Z,150587.09
2018-08-22T12:45:32.215Z,150618.38
2018-08-22T12:48:02.053Z,150597.09
2018-08-22T12:50:31.964Z,150622.17
2018-08-22T12:53:02.769Z,150605.86
2018-08-22T12:55:34.557Z,150622.17
2018-08-22T12:58:04.282Z,150635.94
2018-08-22T13:00:34.518Z,150577.08
2018-08-22T13:03:04.228Z,150579.58
2018-08-22T13:05:36.223Z,150562.02
2018-08-22T13:08:10.346Z,150570.78
2018-08-22T13:10:40.173Z,150552.00
2018-08-22T13:13:10.061Z,150564.52
2018-08-22T13:15:39.876Z,150538.25
2018-08-22T13:18:10.267Z,150548.25
2018-08-22T13:20:40.200Z,150598.34
2018-08-22T13:23:10.005Z,150575.83
2018-08-22T13:25:39.962Z,150569.53
2018-08-22T13:28:10.657Z,150562.02
2018-08-22T13:30:40.491Z,150510.67
2018-08-22T13:33:10.247Z,150504.42
2018-08-22T13:35:40.016Z,150558.27
2018-08-22T13:38:09.845Z,150493.16
2018-08-22T13:40:40.953Z,150496.91
2018-08-22T13:43:10.798Z,150478.06
2018-08-22T13:45:41.438Z,150426.72
2018-08-22T13:48:13.499Z,150436.78
2018-08-22T13:50:44.202Z,150438.03
2018-08-22T13:53:14.108Z,150435.53
2018-08-22T13:55:44.681Z,150421.72
2018-08-22T13:58:14.536Z,150434.28
2018-08-22T14:00:44.467Z,150431.78
2018-08-22T14:03:14.423Z,150454.28
2018-08-22T14:05:44.118Z,150463.05
2018-08-22T14:08:13.948Z,150493.16
2018-08-22T14:10:44.677Z,150448.03
2018-08-22T14:13:15.357Z,150397.95
2018-08-22T14:15:45.143Z,150400.45
2018-08-22T14:18:16.118Z,150411.72
2018-08-22T14:20:50.060Z,150429.22
2018-08-22T14:23:20.440Z,150431.78
2018-08-22T14:25:52.417Z,150391.70
2018-08-22T14:28:25.754Z,150414.22
2018-08-22T14:30:56.754Z,150433.03
2018-08-22T14:33:27.091Z,150431.78
2018-08-22T14:35:58.942Z,150429.22
2018-08-22T14:40:00.339Z,150474.30
2018-08-22T14:42:31.893Z,150419.22
2018-08-22T14:45:01.790Z,150407.95
2018-08-22T14:47:32.924Z,150396.70
2018-08-22T14:50:02.681Z,150360.39
2018-08-22T14:52:32.596Z,150342.88
2018-08-22T14:55:02.331Z,150324.03
2018-08-22T14:57:32.068Z,150325.28
2018-08-22T15:00:02.381Z,150376.66
2018-08-22T15:02:38.847Z,150372.91
2018-08-22T15:05:08.841Z,150346.64
2018-08-22T15:07:39.442Z,150311.53
2018-08-22T15:10:09.944Z,150316.53
2018-08-22T15:12:40.808Z,150268.97
2018-08-22T15:15:10.907Z,150281.47
2018-08-22T15:17:40.707Z,150301.53
2018-08-22T15:20:11.960Z,150296.53
2018-08-22T15:22:41.875Z,150263.97
2018-08-22T15:25:11.798Z,150268.97
2018-08-22T15:27:41.607Z,150272.72
2018-08-22T15:30:12.023Z,150265.22
2018-08-22T15:32:41.775Z,150276.47
2018-08-22T15:35:11.575Z,150261.47
2018-08-22T15:37:47.258Z,150265.22
2018-08-22T15:40:19.550Z,150266.47
2018-08-22T15:42:50.093Z,150253.97
2018-08-22T15:45:20.933Z,150252.72
2018-08-22T15:47:51.947Z,150236.41
2018-08-22T15:50:22.390Z,150226.41
2018-08-22T15:52:53.121Z,150186.37
2018-08-22T15:55:24.232Z,150166.31
2018-08-22T15:58:02.247Z,150116.28
2018-08-22T16:00:49.757Z,150130.03
2018-08-22T16:03:20.140Z,150116.28
2018-08-22T16:05:50.889Z,150147.56
2018-08-22T16:08:26.462Z,150168.81
2018-08-22T16:10:56.744Z,150122.53
2018-08-22T16:13:31.339Z,150106.28
2018-08-22T16:16:04.164Z,150083.73
2018-08-22T16:18:36.051Z,150071.25
2018-08-22T16:21:08.517Z,150078.73
2018-08-22T16:23:38.398Z,150037.45
2018-08-22T16:26:08.339Z,150019.97
2018-08-22T16:28:51.272Z,150019.97
2018-08-22T16:31:25.390Z,150038.70
2018-08-22T16:33:55.465Z,150023.72
2018-08-22T16:36:32.321Z,149982.39
2018-08-22T16:39:02.560Z,149954.86
2018-08-22T16:41:32.298Z,149976.14
2018-08-22T16:44:02.437Z,149934.88
2018-08-22T16:46:32.539Z,149903.59
2018-08-22T16:49:03.190Z,149948.61
2018-08-22T16:51:33.114Z,149927.38
2018-08-22T16:54:09.431Z,149876.12
2018-08-22T16:56:40.460Z,149846.09
2018-08-22T16:59:15.210Z,149819.81
2018-08-22T17:01:49.475Z,149768.58
2018-08-22T17:04:27.375Z,149746.06
2018-08-22T17:07:04.100Z,149737.31
2018-08-22T17:09:33.943Z,149751.05
2018-08-22T17:12:09.265Z,149664.77
2018-08-22T17:14:39.438Z,149654.78
2018-08-22T17:17:09.248Z,149611.05
2018-08-22T17:19:39.847Z,149586.09
2018-08-22T17:22:09.741Z,149576.06
2018-08-22T17:24:41.146Z,149573.56
2018-08-22T17:27:12.536Z,149554.84
2018-08-22T17:29:42.444Z,149556.09
2018-08-22T17:32:12.486Z,149531.13
2018-08-22T17:34:42.465Z,149536.13
2018-08-22T17:37:12.748Z,149506.13
2018-08-22T17:39:43.112Z,149493.66
2018-08-22T17:42:13.019Z,149489.86
2018-08-22T17:44:42.880Z,149487.36
2018-08-22T17:47:12.857Z,149483.63
2018-08-22T17:49:43.683Z,149489.86
2018-08-22T17:52:13.994Z,149491.11
2018-08-22T17:54:44.814Z,149469.84
2018-08-22T17:57:21.385Z,149466.11
2018-08-22T17:59:51.679Z,149453.63
2018-08-22T18:02:21.886Z,149476.09
2018-08-22T18:05:04.846Z,149479.83
2018-08-22T18:07:34.627Z,149488.61
2018-08-22T18:10:05.646Z,149489.86
2018-08-22T18:12:35.924Z,149501.14
2018-08-22T18:15:06.552Z,149496.16
2018-08-22T18:17:37.737Z,149496.16
2018-08-22T18:20:08.612Z,149509.88
2018-08-22T18:22:39.655Z,149503.64
2018-08-22T18:25:10.119Z,149499.89
2018-08-22T18:27:43.035Z,149509.88
2018-08-22T18:30:14.064Z,149497.39
2018-08-22T18:32:47.881Z,149487.36
2018-08-22T18:35:18.648Z,149469.84
2018-08-22T18:37:50.295Z,149443.66
2018-08-22T18:40:27.887Z,149477.34
2018-08-22T18:43:01.507Z,149476.09
2018-08-22T18:45:31.957Z,149476.09
2018-08-22T18:48:07.814Z,149488.61
2018-08-22T18:50:40.719Z,149471.09
2018-08-22T18:53:12.150Z,149486.12
2018-08-22T18:55:42.925Z,149476.09
2018-08-22T18:58:13.393Z,149476.09
2018-08-22T19:00:43.945Z,149472.34
2018-08-22T19:03:14.909Z,149468.59
2018-08-22T19:05:45.726Z,149466.11
2018-08-22T19:08:19.275Z,149452.39
2018-08-22T19:10:51.767Z,149467.36
2018-08-22T19:13:26.421Z,149471.09
2018-08-22T19:16:00.606Z,149452.39
2018-08-22T19:18:31.203Z,149446.16
2018-08-22T19:21:03.328Z,149453.63
2018-08-22T19:23:33.612Z,149458.63
2018-08-22T19:26:05.228Z,149451.14
2018-08-22T19:28:49.808Z,149471.09
2018-08-22T19:31:20.370Z,149448.64
2018-08-22T19:33:51.074Z,149454.88
2018-08-22T19:36:22.278Z,149458.63
2018-08-22T19:38:52.526Z,149448.64
2018-08-22T19:41:33.328Z,149462.36
2018-08-22T19:44:07.384Z,149466.11
2018-08-22T19:46:39.380Z,149463.61
2018-08-22T19:49:11.406Z,149453.63
2018-08-22T19:51:42.861Z,149449.89
2018-08-22T19:54:14.395Z,149441.16
2018-08-22T19:56:47.412Z,149423.66
2018-08-22T19:59:17.716Z,149452.39
2018-08-22T20:01:48.505Z,149463.61
2018-08-22T20:04:20.247Z,149467.36
2018-08-22T20:06:50.691Z,149472.34
2018-08-22T20:09:21.419Z,149457.37
2018-08-22T20:11:52.972Z,149447.39
2018-08-22T20:14:23.216Z,149437.42
2018-08-22T20:16:53.803Z,149447.39
2018-08-22T20:19:24.627Z,149448.64
2018-08-22T20:21:54.966Z,149429.88
2018-08-22T20:24:24.952Z,149441.16
2018-08-22T20:27:02.026Z,149414.91
2018-08-22T20:29:31.830Z,149422.41
2018-08-22T20:32:02.716Z,149427.39
2018-08-22T20:34:34.174Z,149406.19
2018-08-22T20:37:04.411Z,149391.22
2018-08-22T20:39:35.896Z,149393.70
2018-08-22T20:42:11.504Z,149386.17
2018-08-22T20:44:42.473Z,149374.95
2018-08-22T20:47:12.430Z,149381.19
2018-08-22T20:49:42.722Z,149373.70
2018-08-22T20:52:15.006Z,149382.44
2018-08-22T20:54:49.647Z,149348.75
2018-08-22T20:57:20.093Z,149358.73
2018-08-22T20:59:51.041Z,149358.73
2018-08-22T21:02:22.755Z,149350.00
2018-08-22T21:04:53.714Z,149377.44
2018-08-22T21:07:27.396Z,149358.73
2018-08-22T21:09:57.321Z,149361.23
2018-08-22T21:12:27.735Z,149351.25
2018-08-22T21:14:58.952Z,149373.70
2018-08-22T21:17:28.860Z,149368.72
2018-08-22T21:19:59.260Z,149366.22
2018-08-22T21:22:30.871Z,149383.69
2018-08-22T21:25:01.726Z,149383.69
2018-08-22T21:27:32.428Z,149392.47
2018-08-22T21:30:03.792Z,149388.72
2018-08-22T21:32:34.323Z,149388.72
2018-08-22T21:35:16.037Z,149387.42
2018-08-22T21:37:46.009Z,149399.94
2018-08-22T21:40:16.634Z,149411.17
2018-08-22T21:42:47.801Z,149401.19
2018-08-22T21:45:17.491Z,149423.66
2018-08-22T21:47:51.674Z,149438.66
2018-08-22T21:50:33.627Z,149434.88
2018-08-22T21:53:14.571Z,149438.66
2018-08-22T21:55:55.140Z,149444.91
2018-08-22T21:58:31.074Z,149447.39
2018-08-22T22:01:11.278Z,149466.11
2018-08-22T22:03:54.871Z,149464.86
2018-08-22T22:06:28.689Z,149463.61
2018-08-22T22:08:59.942Z,149469.84
2018-08-22T22:11:31.092Z,149467.36
2018-08-22T22:14:08.924Z,149476.09
2018-08-22T22:16:38.795Z,149474.84
2018-08-22T22:19:09.524Z,149494.91
2018-08-22T22:21:39.273Z,149473.59
2018-08-22T22:24:09.035Z,149464.86
2018-08-22T22:26:39.699Z,149456.12
2018-08-22T22:29:10.324Z,149449.89
2018-08-22T22:31:40.204Z,149466.11
2018-08-22T22:34:12.005Z,149442.41
2018-08-22T22:36:41.841Z,149436.17
2018-08-22T22:39:26.274Z,149428.64
2018-08-22T22:41:56.123Z,149438.66
2018-08-22T22:44:26.082Z,149436.17
2018-08-22T22:46:55.969Z,149437.42
2018-08-22T22:49:26.268Z,149443.66
2018-08-22T22:51:56.399Z,149444.91
2018-08-22T22:54:43.473Z,149448.64
2018-08-22T22:57:13.236Z,149446.16
2018-08-22T22:59:43.113Z,149441.16
2018-08-22T23:02:12.957Z,149439.91
2018-08-22T23:04:52.135Z,149438.66
2018-08-22T23:07:30.828Z,149426.14
2018-08-22T23:10:02.711Z,149422.41
2018-08-22T23:12:40.635Z,149418.66
2018-08-22T23:15:18.798Z,149431.13
2018-08-22T23:17:51.502Z,149429.88
2018-08-22T23:20:44.949Z,149438.66
2018-08-22T23:23:30.796Z,149434.88
2018-08-22T23:26:12.896Z,149423.66
2018-08-22T23:28:44.245Z,149417.41
2018-08-22T23:31:21.226Z,149423.66
2018-08-22T23:33:51.681Z,149421.16
2018-08-22T23:36:22.860Z,149416.16
2018-08-22T23:38:53.292Z,149433.63
2018-08-22T23:41:23.450Z,149418.66
2018-08-22T23:43:53.751Z,149416.16
2018-08-22T23:46:24.117Z,149404.94
2018-08-22T23:48:59.059Z,149408.67
2018-08-22T23:51:29.210Z,149402.44
2018-08-22T23:54:00.465Z,149407.42
2018-08-22T23:56:33.025Z,149391.22
2018-08-22T23:59:03.581Z,149409.92
